Time;durP1;ratioP1;P1;durP2;ratioP2;P2;SDS_P1;SDS_P2;PMS_P1;PMS_P2;Temp;Humidity;BMP_temperature;BMP_pressure;BME280_temperature;BME280_humidity;BME280_pressure;Samples;Min_cycle;Max_cycle;Signal;HPM_P1;HPM_P2
2023/08/06 00:02:03;;;;;;;5.97;5.47;;;15.60;99.90;;;;;;4995269;28;20182;-67
2023/08/06 00:04:28;;;;;;;5.47;5.07;;;15.60;99.90;;;;;;5009275;28;20184;-67
2023/08/06 00:06:54;;;;;;;5.63;5.23;;;15.60;99.90;;;;;;5000919;28;20205;-66
2023/08/06 00:09:19;;;;;;;7.67;5.13;;;15.50;99.90;;;;;;5000695;28;20628;-67
2023/08/06 00:11:46;;;;;;;5.80;5.30;;;15.40;99.90;;;;;;4993070;28;20183;-66
2023/08/06 00:14:15;;;;;;;5.50;5.00;;;15.40;99.90;;;;;;5003073;28;20254;-67
2023/08/06 00:16:42;;;;;;;5.17;4.70;;;15.30;99.90;;;;;;5005585;28;20805;-66
2023/08/06 00:19:08;;;;;;;4.83;4.43;;;15.30;99.90;;;;;;5002897;28;20823;-67
2023/08/06 00:21:33;;;;;;;6.20;4.93;;;15.20;99.90;;;;;;4994687;28;20473;-66
2023/08/06 00:23:59;;;;;;;4.73;4.30;;;15.10;99.90;;;;;;4992605;28;20234;-66
2023/08/06 00:26:24;;;;;;;4.30;3.90;;;15.10;99.90;;;;;;5004826;28;20627;-66
2023/08/06 00:28:50;;;;;;;6.33;4.90;;;15.00;99.90;;;;;;4998206;28;20207;-66
2023/08/06 00:31:15;;;;;;;5.43;5.03;;;15.00;99.90;;;;;;4995252;28;20175;-67
2023/08/06 00:33:41;;;;;;;8.33;4.90;;;14.90;99.90;;;;;;5001437;28;20187;-66
2023/08/06 00:36:06;;;;;;;4.73;4.43;;;14.90;99.90;;;;;;5001758;28;20200;-66
2023/08/06 00:38:32;;;;;;;8.63;4.60;;;14.90;99.90;;;;;;5001728;28;20201;-66
2023/08/06 00:40:57;;;;;;;4.00;3.70;;;14.90;99.90;;;;;;5002816;28;20245;-66
2023/08/06 00:43:23;;;;;;;4.40;4.10;;;14.80;99.90;;;;;;4999867;28;20187;-66
2023/08/06 00:45:48;;;;;;;4.67;4.30;;;14.80;99.90;;;;;;4999859;28;20205;-66
2023/08/06 00:48:15;;;;;;;4.50;4.10;;;14.80;99.90;;;;;;5000361;28;20640;-67
2023/08/06 00:50:40;;;;;;;4.40;3.80;;;14.80;99.90;;;;;;4994806;28;20234;-66
2023/08/06 00:53:06;;;;;;;4.73;4.33;;;14.80;99.90;;;;;;4993370;28;20467;-67
2023/08/06 00:55:32;;;;;;;4.70;4.30;;;14.80;99.90;;;;;;5004849;28;20581;-67
2023/08/06 00:57:58;;;;;;;5.50;4.67;;;14.70;99.90;;;;;;5004453;28;20623;-66
2023/08/06 01:00:24;;;;;;;4.60;4.20;;;14.60;99.90;;;;;;4991690;28;20537;-66
2023/08/06 01:02:50;;;;;;;12.60;4.10;;;14.60;99.90;;;;;;4992978;28;20172;-66
2023/08/06 01:05:15;;;;;;;5.67;4.80;;;14.50;99.90;;;;;;5002766;28;20500;-67
2023/08/06 01:08:12;;;;;;;5.50;5.00;;;14.50;99.90;;;;;;5004577;28;20712;-66
2023/08/06 01:10:57;;;;;;;4.97;4.30;;;14.40;99.90;;;;;;5001063;28;20195;-66
2023/08/06 01:13:42;;;;;;;4.77;4.37;;;14.40;99.90;;;;;;4994571;28;20426;-66
2023/08/06 01:16:09;;;;;;;4.37;4.00;;;14.40;99.90;;;;;;5003402;28;20469;-67
2023/08/06 01:18:37;;;;;;;5.40;4.30;;;14.40;99.90;;;;;;5000329;28;21017;-66
2023/08/06 01:21:02;;;;;;;4.73;4.30;;;14.40;99.90;;;;;;5001005;28;20583;-66
2023/08/06 01:23:28;;;;;;;5.40;4.90;;;14.40;99.90;;;;;;5000284;28;20434;-66
2023/08/06 01:26:16;;;;;;;4.47;4.13;;;14.40;99.90;;;;;;5004231;28;20261;-66
2023/08/06 01:28:51;;;;;;;4.33;3.93;;;14.40;99.90;;;;;;4999566;28;20190;-66
2023/08/06 01:31:24;;;;;;;4.50;4.10;;;14.40;99.90;;;;;;5002536;28;20497;-66
2023/08/06 01:33:50;;;;;;;4.60;4.20;;;14.40;99.90;;;;;;4997960;28;20807;-67
2023/08/06 01:36:18;;;;;;;4.93;4.10;;;14.40;99.90;;;;;;5001765;28;20465;-67
2023/08/06 01:38:44;;;;;;;4.57;4.13;;;14.40;99.90;;;;;;4999982;28;20439;-66
2023/08/06 01:41:09;;;;;;;5.00;4.60;;;14.40;99.90;;;;;;5001405;28;20431;-67
2023/08/06 01:43:35;;;;;;;5.90;4.50;;;14.40;99.90;;;;;;4997496;28;20944;-66
2023/08/06 01:46:00;;;;;;;6.40;4.60;;;14.40;99.90;;;;;;5002334;28;20190;-66
2023/08/06 01:48:26;;;;;;;4.00;3.70;;;14.40;99.90;;;;;;4999341;28;20203;-67
2023/08/06 01:50:51;;;;;;;5.23;4.73;;;14.30;99.90;;;;;;5000306;28;20728;-66
2023/08/06 01:53:17;;;;;;;4.60;4.20;;;14.30;99.90;;;;;;5001626;28;20233;-67
2023/08/06 01:55:48;;;;;;;5.20;4.80;;;14.20;99.90;;;;;;5003704;28;20252;-66
2023/08/06 01:58:13;;;;;;;4.60;4.30;;;14.20;99.90;;;;;;5001686;28;20334;-67
2023/08/06 02:00:40;;;;;;;6.00;4.77;;;14.20;99.90;;;;;;4999362;28;20469;-67
2023/08/06 02:03:05;;;;;;;4.90;4.40;;;14.10;99.90;;;;;;5000481;28;20176;-66
2023/08/06 02:05:30;;;;;;;4.20;3.83;;;14.10;99.90;;;;;;5001501;28;20449;-66
2023/08/06 02:07:56;;;;;;;5.63;5.20;;;14.00;99.90;;;;;;5003446;28;20183;-66
2023/08/06 02:10:21;;;;;;;4.60;4.20;;;14.00;99.90;;;;;;5000375;28;20554;-66
2023/08/06 02:12:47;;;;;;;5.40;4.90;;;13.90;99.90;;;;;;4998350;28;20187;-67
2023/08/06 02:15:12;;;;;;;5.20;4.70;;;13.90;99.90;;;;;;4997419;28;20195;-66
2023/08/06 02:17:38;;;;;;;5.30;4.80;;;13.80;99.90;;;;;;5003474;28;20241;-67
2023/08/06 02:20:04;;;;;;;5.50;5.10;;;13.80;99.90;;;;;;5002420;28;20731;-66
2023/08/06 02:22:30;;;;;;;5.00;4.60;;;13.80;99.90;;;;;;4996237;28;20262;-66
2023/08/06 02:24:55;;;;;;;4.80;4.40;;;13.70;99.90;;;;;;4996701;28;20577;-66
2023/08/06 02:27:21;;;;;;;4.73;4.33;;;13.70;99.90;;;;;;5002435;28;20564;-66
2023/08/06 02:29:46;;;;;;;5.43;5.03;;;13.70;99.90;;;;;;5002498;28;20210;-67
2023/08/06 02:32:12;;;;;;;5.10;4.57;;;13.60;99.90;;;;;;5001747;28;20179;-66
2023/08/06 02:34:37;;;;;;;4.20;3.90;;;13.60;99.90;;;;;;4992003;28;20306;-67
2023/08/06 02:37:03;;;;;;;5.47;5.10;;;13.60;99.90;;;;;;5000025;28;20179;-66
2023/08/06 02:39:28;;;;;;;4.87;4.40;;;13.60;99.90;;;;;;5001326;28;20534;-66
2023/08/06 02:41:54;;;;;;;4.77;4.37;;;13.50;99.90;;;;;;5003291;28;20179;-66
2023/08/06 02:44:19;;;;;;;4.23;3.93;;;13.50;99.90;;;;;;4997244;28;20658;-66
2023/08/06 02:46:45;;;;;;;4.43;4.03;;;13.50;99.90;;;;;;4998922;28;20188;-66
2023/08/06 02:49:11;;;;;;;6.40;4.23;;;13.50;99.90;;;;;;4999948;28;20211;-67
2023/08/06 02:51:36;;;;;;;4.40;4.10;;;13.50;99.90;;;;;;5003210;28;20179;-67
2023/08/06 02:54:02;;;;;;;5.03;3.50;;;13.50;99.90;;;;;;4994542;28;20176;-66
2023/08/06 02:56:27;;;;;;;4.97;3.80;;;13.50;99.90;;;;;;5002453;28;20209;-66
2023/08/06 02:58:53;;;;;;;5.00;4.50;;;13.50;99.90;;;;;;4991057;28;20656;-66
2023/08/06 03:01:18;;;;;;;7.80;4.10;;;13.40;99.90;;;;;;5001641;28;20567;-66
2023/08/06 03:03:44;;;;;;;3.70;3.40;;;13.50;99.90;;;;;;5002879;28;20230;-66
2023/08/06 03:06:09;;;;;;;5.70;4.20;;;13.50;99.90;;;;;;4995226;28;20183;-67
2023/08/06 03:08:35;;;;;;;4.27;3.87;;;13.50;99.90;;;;;;5002272;28;20258;-66
2023/08/06 03:11:01;;;;;;;4.57;3.67;;;13.60;99.90;;;;;;5002191;28;20291;-66
2023/08/06 03:13:27;;;;;;;3.87;3.57;;;13.70;99.90;;;;;;5006395;28;20194;-67
2023/08/06 03:15:58;;;;;;;4.70;4.30;;;13.70;99.90;;;;;;5002338;28;20214;-66
2023/08/06 03:18:25;;;;;;;4.30;4.00;;;13.80;99.90;;;;;;5003352;28;20433;-66
2023/08/06 03:20:51;;;;;;;4.07;3.70;;;13.80;99.90;;;;;;5002541;28;20563;-66
2023/08/06 03:23:17;;;;;;;11.00;4.00;;;13.80;99.90;;;;;;5004912;28;20514;-67
2023/08/06 03:25:43;;;;;;;3.87;3.47;;;13.80;99.90;;;;;;5001775;28;20183;-67
2023/08/06 03:28:08;;;;;;;3.90;3.60;;;13.70;99.90;;;;;;5002318;28;20175;-67
2023/08/06 03:30:34;;;;;;;4.03;3.63;;;13.70;99.90;;;;;;4997989;28;20691;-66
2023/08/06 03:32:59;;;;;;;4.43;4.03;;;13.80;99.90;;;;;;5003011;28;20176;-67
2023/08/06 03:35:25;;;;;;;3.47;3.17;;;13.80;99.90;;;;;;5005618;28;20210;-66
2023/08/06 03:37:50;;;;;;;4.03;3.63;;;13.70;99.90;;;;;;5006286;28;20179;-67
2023/08/06 03:40:16;;;;;;;3.70;3.40;;;13.80;99.90;;;;;;5003325;28;20206;-67
2023/08/06 03:42:41;;;;;;;3.50;3.20;;;13.80;99.90;;;;;;5002724;28;20175;-66
2023/08/06 03:45:07;;;;;;;4.60;3.00;;;13.80;99.90;;;;;;5003263;28;20655;-66
2023/08/06 03:47:33;;;;;;;8.27;4.00;;;13.90;99.90;;;;;;5003846;28;20187;-66
2023/08/06 03:49:58;;;;;;;4.77;3.27;;;13.90;99.90;;;;;;5005226;28;20449;-66
2023/08/06 03:52:24;;;;;;;4.07;3.10;;;13.90;99.90;;;;;;5003017;28;20187;-66
2023/08/06 03:54:50;;;;;;;4.60;3.20;;;14.00;99.90;;;;;;5001595;28;20214;-66
2023/08/06 03:57:15;;;;;;;3.13;2.77;;;14.00;99.90;;;;;;4999496;28;20194;-66
2023/08/06 03:59:41;;;;;;;4.60;3.53;;;14.00;99.90;;;;;;5002623;28;20198;-66
2023/08/06 04:02:06;;;;;;;6.73;3.43;;;14.00;99.90;;;;;;5005440;28;20210;-67
2023/08/06 04:04:32;;;;;;;3.20;2.90;;;14.00;99.90;;;;;;5001798;28;20183;-67
2023/08/06 04:06:57;;;;;;;4.33;3.17;;;14.00;99.90;;;;;;5001179;28;20667;-66
2023/08/06 04:09:23;;;;;;;3.10;2.73;;;14.00;99.90;;;;;;5004076;28;20289;-66
2023/08/06 04:11:48;;;;;;;3.17;2.87;;;14.00;99.90;;;;;;5005675;28;20183;-67
2023/08/06 04:14:14;;;;;;;5.90;3.17;;;14.10;99.90;;;;;;5004182;28;20190;-66
2023/08/06 04:16:39;;;;;;;2.90;2.50;;;14.00;99.90;;;;;;4997169;28;20186;-66
2023/08/06 04:19:05;;;;;;;6.73;3.47;;;14.00;99.90;;;;;;5001062;28;20207;-66
2023/08/06 04:21:30;;;;;;;3.57;3.23;;;14.00;99.90;;;;;;5005586;28;20198;-66
2023/08/06 04:23:56;;;;;;;3.27;2.77;;;13.90;99.90;;;;;;5005552;28;20183;-66
2023/08/06 04:26:22;;;;;;;4.63;3.10;;;13.80;99.90;;;;;;4998011;28;20534;-66
2023/08/06 04:28:48;;;;;;;4.90;2.83;;;13.80;99.90;;;;;;4999399;28;20947;-66
2023/08/06 04:31:14;;;;;;;4.67;2.90;;;13.70;99.90;;;;;;5003363;28;20192;-66
2023/08/06 04:33:40;;;;;;;2.73;2.53;;;13.80;99.90;;;;;;5005269;28;20569;-66
2023/08/06 04:36:05;;;;;;;2.50;2.30;;;13.70;99.90;;;;;;4994536;28;20203;-66
2023/08/06 04:38:31;;;;;;;2.93;2.73;;;13.80;99.90;;;;;;5002414;28;20190;-66
2023/08/06 04:40:57;;;;;;;3.70;3.23;;;13.70;99.90;;;;;;4997526;28;20868;-66
2023/08/06 04:43:23;;;;;;;3.40;2.90;;;13.80;99.90;;;;;;5003518;28;20533;-66
2023/08/06 04:45:54;;;;;;;4.10;2.73;;;13.80;99.90;;;;;;5005097;28;20437;-66
2023/08/06 04:48:20;;;;;;;3.53;3.10;;;13.80;99.90;;;;;;4991918;28;20713;-66
2023/08/06 04:50:46;;;;;;;2.87;2.43;;;13.80;99.90;;;;;;5001298;28;20462;-66
2023/08/06 04:53:12;;;;;;;3.37;2.77;;;13.90;99.90;;;;;;5002238;28;20262;-66
2023/08/06 04:55:38;;;;;;;5.00;2.73;;;13.90;99.90;;;;;;5000472;28;20582;-66
2023/08/06 04:58:03;;;;;;;2.63;2.30;;;13.90;99.90;;;;;;4995906;28;20445;-67
2023/08/06 05:00:29;;;;;;;7.03;2.77;;;13.90;99.90;;;;;;4999609;28;20588;-66
2023/08/06 05:02:55;;;;;;;2.90;2.33;;;14.00;99.90;;;;;;5004738;28;20258;-66
2023/08/06 05:05:20;;;;;;;2.90;2.43;;;14.10;99.90;;;;;;5002425;28;20253;-67
2023/08/06 05:07:49;;;;;;;2.30;2.10;;;14.10;99.90;;;;;;5000437;28;20203;-66
2023/08/06 05:10:15;;;;;;;1.67;1.57;;;14.10;99.90;;;;;;5001149;28;20222;-66
2023/08/06 05:12:41;;;;;;;3.30;2.20;;;14.10;99.90;;;;;;5004628;28;20533;-66
2023/08/06 05:15:07;;;;;;;2.27;2.07;;;14.10;99.90;;;;;;4992392;28;20563;-66
2023/08/06 05:17:33;;;;;;;3.87;2.80;;;14.10;99.90;;;;;;4992951;28;20254;-66
2023/08/06 05:19:58;;;;;;;2.73;2.20;;;14.00;99.90;;;;;;4992729;28;20561;-66
2023/08/06 05:22:23;;;;;;;1.53;1.43;;;14.00;99.90;;;;;;4991285;28;20187;-66
2023/08/06 05:24:49;;;;;;;3.00;1.90;;;14.00;99.90;;;;;;4987499;28;20183;-66
2023/08/06 05:27:15;;;;;;;3.37;2.03;;;14.10;99.90;;;;;;4992046;28;20191;-66
2023/08/06 05:29:40;;;;;;;2.67;2.03;;;14.30;99.90;;;;;;5003872;28;20241;-66
2023/08/06 05:32:06;;;;;;;1.93;1.40;;;14.50;99.90;;;;;;5000345;28;20183;-66
2023/08/06 05:34:31;;;;;;;2.33;1.80;;;14.80;99.90;;;;;;5004036;28;20241;-66
2023/08/06 05:36:57;;;;;;;1.60;1.50;;;15.00;99.90;;;;;;4995045;28;20171;-67
2023/08/06 05:39:22;;;;;;;5.20;2.00;;;15.20;99.90;;;;;;5000016;28;20293;-66
2023/08/06 05:41:48;;;;;;;3.80;1.63;;;15.50;99.90;;;;;;5000709;28;20172;-66
2023/08/06 05:44:13;;;;;;;1.53;1.43;;;15.60;99.90;;;;;;4999781;28;20525;-66
2023/08/06 05:46:39;;;;;;;2.37;1.30;;;15.70;99.90;;;;;;5003290;28;20692;-66
2023/08/06 05:49:05;;;;;;;1.70;1.30;;;15.60;99.90;;;;;;4999229;28;20212;-66
2023/08/06 05:51:30;;;;;;;1.70;1.60;;;15.60;99.90;;;;;;4999617;28;20179;-66
2023/08/06 05:53:56;;;;;;;1.50;1.40;;;15.70;99.90;;;;;;5005090;28;20203;-67
2023/08/06 05:56:21;;;;;;;2.20;1.43;;;15.60;99.90;;;;;;4997302;28;20298;-66
2023/08/06 05:58:47;;;;;;;2.00;1.33;;;15.50;99.90;;;;;;4989243;28;20178;-66
2023/08/06 06:01:13;;;;;;;1.73;1.60;;;15.50;99.90;;;;;;5000963;28;20697;-66
2023/08/06 06:03:38;;;;;;;3.70;1.40;;;15.30;99.90;;;;;;5002683;28;20175;-66
2023/08/06 06:06:04;;;;;;;2.27;1.47;;;15.10;99.90;;;;;;5000305;28;20229;-66
2023/08/06 06:08:29;;;;;;;7.70;1.77;;;15.00;99.90;;;;;;4998273;28;20241;-67
2023/08/06 06:10:55;;;;;;;2.60;1.60;;;14.90;99.90;;;;;;4991427;28;20211;-66
2023/08/06 06:13:20;;;;;;;3.53;2.10;;;14.90;99.90;;;;;;5001808;28;20186;-66
2023/08/06 06:15:47;;;;;;;1.13;1.03;;;14.80;99.90;;;;;;5003155;28;20297;-66
2023/08/06 06:18:13;;;;;;;1.63;1.40;;;14.80;99.90;;;;;;4996232;28;20171;-66
2023/08/06 06:20:39;;;;;;;1.93;1.33;;;15.00;99.90;;;;;;4999399;28;20470;-66
2023/08/06 06:23:04;;;;;;;4.27;1.73;;;15.00;99.90;;;;;;4999712;28;20967;-66
2023/08/06 06:25:30;;;;;;;2.80;1.30;;;15.00;99.90;;;;;;5003262;28;20715;-66
2023/08/06 06:27:55;;;;;;;3.13;1.73;;;15.00;99.90;;;;;;5002960;28;20179;-65
2023/08/06 06:30:21;;;;;;;1.80;1.70;;;15.00;99.90;;;;;;4992942;28;20199;-66
2023/08/06 06:32:47;;;;;;;1.93;1.57;;;15.10;99.90;;;;;;4998158;28;20180;-66
2023/08/06 06:35:12;;;;;;;2.20;1.23;;;15.10;99.90;;;;;;4990187;28;20462;-66
2023/08/06 06:37:38;;;;;;;2.00;1.13;;;15.10;99.90;;;;;;4994153;28;20328;-67
2023/08/06 06:40:04;;;;;;;2.10;1.00;;;15.00;99.90;;;;;;4998345;28;20203;-65
2023/08/06 06:42:29;;;;;;;3.70;2.80;;;15.10;99.90;;;;;;4993635;28;20175;-65
2023/08/06 06:44:55;;;;;;;1.47;1.20;;;15.00;99.90;;;;;;4992332;28;20791;-66
2023/08/06 06:47:20;;;;;;;1.37;1.07;;;15.00;99.90;;;;;;5001648;28;20197;-66
2023/08/06 06:49:46;;;;;;;6.00;1.67;;;14.90;99.90;;;;;;5001416;28;20199;-66
2023/08/06 06:52:11;;;;;;;2.20;1.73;;;14.90;99.90;;;;;;4997583;28;20183;-66
2023/08/06 06:54:37;;;;;;;2.97;1.80;;;14.80;99.90;;;;;;4998941;28;20230;-66
2023/08/06 06:57:03;;;;;;;2.37;1.20;;;14.80;99.90;;;;;;4999687;28;20172;-66
2023/08/06 06:59:28;;;;;;;2.00;1.47;;;14.70;99.90;;;;;;4997961;28;20203;-65
2023/08/06 07:01:54;;;;;;;5.97;3.93;;;14.60;99.90;;;;;;4995408;28;20261;-65
2023/08/06 07:04:19;;;;;;;5.00;2.30;;;14.50;99.90;;;;;;4996313;28;20179;-66
2023/08/06 07:06:45;;;;;;;2.77;1.57;;;14.40;99.90;;;;;;5003259;28;20185;-66
2023/08/06 07:09:10;;;;;;;2.00;1.57;;;14.40;99.90;;;;;;5001200;28;20694;-66
2023/08/06 07:11:36;;;;;;;1.77;1.57;;;14.40;99.90;;;;;;4995077;28;20178;-66
2023/08/06 07:14:01;;;;;;;1.60;1.50;;;14.30;99.90;;;;;;5000409;28;20672;-67
2023/08/06 07:16:27;;;;;;;1.77;1.67;;;14.30;99.90;;;;;;5002471;28;20206;-66
2023/08/06 07:18:54;;;;;;;2.17;1.97;;;14.20;99.90;;;;;;5001944;28;20179;-66
2023/08/06 07:21:20;;;;;;;5.20;1.40;;;14.00;99.90;;;;;;4993947;28;20187;-66
2023/08/06 07:23:46;;;;;;;2.00;1.80;;;14.00;99.90;;;;;;5000590;28;20591;-66
2023/08/06 07:26:11;;;;;;;1.43;1.33;;;14.00;99.90;;;;;;4991548;28;20919;-66
2023/08/06 07:28:37;;;;;;;3.40;1.90;;;14.10;99.90;;;;;;4998313;28;20265;-65
2023/08/06 07:31:03;;;;;;;1.93;1.30;;;14.10;99.90;;;;;;4992218;28;20254;-65
2023/08/06 07:33:29;;;;;;;4.53;1.37;;;14.10;99.90;;;;;;4986594;28;20554;-66
2023/08/06 07:35:55;;;;;;;1.20;1.10;;;14.20;99.90;;;;;;5002620;28;20469;-66
2023/08/06 07:38:21;;;;;;;2.90;1.40;;;14.20;99.90;;;;;;4998765;28;20187;-66
2023/08/06 07:40:47;;;;;;;2.73;2.17;;;14.10;99.90;;;;;;4989640;28;20207;-65
2023/08/06 07:43:12;;;;;;;1.20;1.10;;;14.20;99.90;;;;;;5000257;28;20435;-65
2023/08/06 07:45:38;;;;;;;1.43;1.33;;;14.30;99.90;;;;;;5002779;28;20513;-67
2023/08/06 07:48:04;;;;;;;1.00;0.83;;;14.50;99.90;;;;;;5002704;28;20194;-65
2023/08/06 07:50:29;;;;;;;1.30;1.20;;;14.40;99.90;;;;;;4995568;28;20203;-65
2023/08/06 07:52:55;;;;;;;2.20;0.90;;;14.50;99.90;;;;;;4991260;28;20183;-65
2023/08/06 07:55:20;;;;;;;1.53;0.90;;;14.50;99.90;;;;;;5002007;28;20258;-66
2023/08/06 07:57:46;;;;;;;1.03;0.87;;;14.60;99.90;;;;;;5005988;28;20670;-65
2023/08/06 08:00:11;;;;;;;1.53;0.60;;;14.80;99.90;;;;;;4996752;28;20195;-66
2023/08/06 08:02:37;;;;;;;3.30;1.80;;;14.90;99.90;;;;;;5001666;28;20195;-66
2023/08/06 08:05:03;;;;;;;2.53;2.30;;;15.10;99.90;;;;;;4997618;28;20175;-65
2023/08/06 08:07:30;;;;;;;0.90;0.80;;;15.40;99.90;;;;;;5005880;28;20183;-65
2023/08/06 08:09:56;;;;;;;1.83;0.50;;;15.40;99.90;;;;;;5004949;28;20730;-65
2023/08/06 08:12:22;;;;;;;1.33;1.20;;;15.40;99.90;;;;;;4998549;28;20525;-66
2023/08/06 08:14:47;;;;;;;0.77;0.70;;;15.30;99.90;;;;;;5002099;28;20852;-65
2023/08/06 08:17:13;;;;;;;0.80;0.80;;;15.40;99.90;;;;;;5003588;28;20676;-65
2023/08/06 08:19:40;;;;;;;1.23;0.77;;;15.40;99.90;;;;;;5004646;28;20214;-65
2023/08/06 08:22:06;;;;;;;0.50;0.50;;;15.20;99.90;;;;;;5002233;28;20633;-65
2023/08/06 08:24:31;;;;;;;0.93;0.87;;;15.00;99.90;;;;;;5002131;28;20431;-66
2023/08/06 08:26:57;;;;;;;0.90;0.90;;;14.90;99.90;;;;;;5001315;28;20187;-65
2023/08/06 08:29:22;;;;;;;1.33;0.77;;;14.90;99.90;;;;;;5002050;28;20209;-65
2023/08/06 08:31:51;;;;;;;1.40;0.93;;;14.90;99.90;;;;;;5004134;28;20175;-65
2023/08/06 08:34:17;;;;;;;1.27;0.57;;;15.00;99.90;;;;;;5002397;28;20179;-65
2023/08/06 08:36:43;;;;;;;2.40;0.70;;;15.00;99.90;;;;;;5000759;28;20552;-65
2023/08/06 08:39:08;;;;;;;0.50;0.50;;;15.00;99.90;;;;;;5001123;28;20554;-66
2023/08/06 08:41:36;;;;;;;1.13;0.73;;;14.90;99.90;;;;;;5004464;28;20175;-65
2023/08/06 08:44:02;;;;;;;0.70;0.70;;;15.00;99.90;;;;;;5004416;28;20270;-66
2023/08/06 08:46:31;;;;;;;0.70;0.70;;;15.00;99.90;;;;;;5001097;28;20439;-66
2023/08/06 08:48:59;;;;;;;0.90;0.90;;;15.10;99.90;;;;;;5000049;28;20434;-65
2023/08/06 08:51:27;;;;;;;0.60;0.60;;;15.40;99.90;;;;;;5002708;28;20430;-65
2023/08/06 08:53:56;;;;;;;1.17;1.07;;;15.50;99.90;;;;;;5004933;28;20517;-66
2023/08/06 08:56:21;;;;;;;0.80;0.73;;;15.70;99.90;;;;;;5001999;28;21150;-67
2023/08/06 08:58:48;;;;;;;0.57;0.57;;;15.80;99.90;;;;;;4999983;28;20431;-66
2023/08/06 09:01:14;;;;;;;0.83;0.70;;;15.80;99.90;;;;;;5002484;28;20548;-66
2023/08/06 09:03:42;;;;;;;0.83;0.70;;;15.90;99.90;;;;;;4998934;28;20440;-66
2023/08/06 09:06:11;;;;;;;0.70;0.70;;;16.00;99.90;;;;;;5005410;28;20484;-66
2023/08/06 09:08:41;;;;;;;0.70;0.70;;;16.00;99.90;;;;;;5001319;28;20504;-66
2023/08/06 09:11:10;;;;;;;0.90;0.70;;;16.00;99.90;;;;;;5004463;28;20454;-67
2023/08/06 09:13:37;;;;;;;1.53;0.70;;;16.30;99.90;;;;;;5003642;28;20511;-66
2023/08/06 09:16:03;;;;;;;0.60;0.60;;;16.70;99.90;;;;;;5004450;28;20871;-65
2023/08/06 09:18:30;;;;;;;0.80;0.80;;;17.10;99.90;;;;;;4997011;28;20445;-66
2023/08/06 09:20:56;;;;;;;0.60;0.60;;;17.30;99.90;;;;;;5000168;28;20230;-66
2023/08/06 09:23:30;;;;;;;0.70;0.70;;;17.30;99.90;;;;;;4998682;28;20438;-66
2023/08/06 09:25:56;;;;;;;0.60;0.60;;;17.40;99.90;;;;;;5004444;28;20473;-67
2023/08/06 09:28:21;;;;;;;0.70;0.70;;;17.40;99.90;;;;;;5001323;28;20523;-67
2023/08/06 09:30:48;;;;;;;0.70;0.70;;;17.40;99.90;;;;;;5000060;28;20203;-67
2023/08/06 09:33:18;;;;;;;0.90;0.90;;;17.40;99.90;;;;;;4997320;28;20244;-67
2023/08/06 09:35:45;;;;;;;1.20;1.10;;;17.30;99.90;;;;;;5002378;28;20473;-66
2023/08/06 09:38:11;;;;;;;0.77;0.77;;;17.20;99.90;;;;;;5002822;28;20528;-66
2023/08/06 09:40:38;;;;;;;0.60;0.60;;;16.70;99.90;;;;;;4999895;28;20520;-66
2023/08/06 09:43:03;;;;;;;5.70;0.80;;;16.40;99.90;;;;;;4994413;28;20462;-67
2023/08/06 09:45:36;;;;;;;0.80;0.80;;;16.30;99.90;;;;;;5001098;28;20442;-66
2023/08/06 09:48:07;;;;;;;1.37;1.00;;;16.40;99.90;;;;;;4996131;28;20249;-67
2023/08/06 09:50:38;;;;;;;1.27;0.70;;;16.60;99.90;;;;;;4999103;28;20458;-66
2023/08/06 09:53:08;;;;;;;0.90;0.87;;;16.80;99.90;;;;;;4996430;28;20489;-67
2023/08/06 09:55:34;;;;;;;1.10;0.90;;;16.80;99.90;;;;;;4993944;28;20468;-66
2023/08/06 09:58:00;;;;;;;0.83;0.83;;;16.70;99.90;;;;;;4996834;28;20442;-66
2023/08/06 10:00:28;;;;;;;1.37;0.70;;;16.40;99.90;;;;;;5002573;28;20457;-67
2023/08/06 10:02:56;;;;;;;0.80;0.70;;;16.20;99.90;;;;;;4997262;28;20449;-66
2023/08/06 10:05:23;;;;;;;1.43;0.70;;;15.90;99.90;;;;;;5005895;28;20997;-66
2023/08/06 10:07:50;;;;;;;1.10;0.90;;;15.80;99.90;;;;;;4999455;28;20525;-67
2023/08/06 10:10:16;;;;;;;0.87;0.70;;;15.70;99.90;;;;;;5001008;28;20462;-67
2023/08/06 10:12:51;;;;;;;0.83;0.70;;;15.60;99.90;;;;;;5000759;28;20507;-66
2023/08/06 10:15:21;;;;;;;0.93;0.93;;;15.60;99.90;;;;;;4998619;28;20210;-66
2023/08/06 10:17:50;;;;;;;1.40;1.30;;;15.50;99.90;;;;;;5001693;28;20845;-67
2023/08/06 10:20:15;;;;;;;0.60;0.60;;;15.50;99.90;;;;;;5000708;28;20850;-66
2023/08/06 10:22:45;;;;;;;0.60;0.60;;;15.40;99.90;;;;;;5003536;28;20444;-66
2023/08/06 10:25:10;;;;;;;1.67;1.20;;;15.40;99.90;;;;;;5000460;28;20186;-66
2023/08/06 10:27:52;;;;;;;1.00;1.00;;;15.50;99.90;;;;;;4999975;28;20438;-66
2023/08/06 10:30:23;;;;;;;3.33;0.80;;;15.50;99.90;;;;;;5000454;28;20590;-67
2023/08/06 10:32:51;;;;;;;0.60;0.60;;;15.60;99.90;;;;;;5003208;28;20437;-67
2023/08/06 10:35:35;;;;;;;0.90;0.70;;;15.60;99.90;;;;;;4995703;28;20469;-66
2023/08/06 10:38:04;;;;;;;0.70;0.70;;;15.60;99.90;;;;;;5001533;28;20438;-66
2023/08/06 10:40:30;;;;;;;0.70;0.70;;;15.50;99.90;;;;;;4998433;28;20461;-66
2023/08/06 10:42:59;;;;;;;0.97;0.70;;;15.50;99.90;;;;;;4999493;28;20434;-67
2023/08/06 10:45:28;;;;;;;0.90;0.73;;;15.60;99.90;;;;;;4997664;28;20438;-67
2023/08/06 10:47:56;;;;;;;1.20;1.10;;;15.60;99.90;;;;;;5001966;28;20856;-66
2023/08/06 10:50:21;;;;;;;0.60;0.60;;;15.70;99.90;;;;;;4999949;28;20468;-66
2023/08/06 10:52:47;;;;;;;1.30;1.00;;;15.70;99.90;;;;;;5004040;28;20743;-67
2023/08/06 10:55:14;;;;;;;1.60;1.50;;;15.80;99.90;;;;;;4999575;28;20233;-67
2023/08/06 10:57:40;;;;;;;1.23;1.13;;;15.80;99.90;;;;;;4996377;28;20856;-66
2023/08/06 11:00:08;;;;;;;1.00;0.63;;;15.90;99.90;;;;;;5001922;28;20481;-67
2023/08/06 11:02:36;;;;;;;0.80;0.80;;;15.90;99.90;;;;;;4998877;28;20211;-66
2023/08/06 11:05:09;;;;;;;1.03;0.90;;;16.10;99.90;;;;;;4994624;28;20445;-66
2023/08/06 11:07:35;;;;;;;1.57;1.47;;;16.30;99.90;;;;;;4987480;28;20918;-66
2023/08/06 11:10:09;;;;;;;1.53;0.97;;;16.30;99.90;;;;;;4996046;28;20453;-66
2023/08/06 11:12:35;;;;;;;2.03;0.80;;;16.10;99.90;;;;;;4993942;28;20459;-66
2023/08/06 11:15:02;;;;;;;0.97;0.80;;;15.90;99.90;;;;;;4999246;28;20468;-66
2023/08/06 11:17:29;;;;;;;1.20;0.90;;;15.60;99.90;;;;;;4996555;28;20441;-66
2023/08/06 11:19:55;;;;;;;0.93;0.93;;;15.30;99.90;;;;;;5001545;28;20469;-66
2023/08/06 11:22:22;;;;;;;0.60;0.60;;;15.10;99.90;;;;;;5000388;28;20532;-66
2023/08/06 11:24:48;;;;;;;0.83;0.83;;;15.10;99.90;;;;;;4992722;28;20443;-66
2023/08/06 11:27:15;;;;;;;0.63;0.63;;;15.10;99.90;;;;;;5000452;28;20450;-66
2023/08/06 11:29:42;;;;;;;0.63;0.63;;;15.40;99.90;;;;;;5001481;28;20978;-66
2023/08/06 11:32:09;;;;;;;0.70;0.70;;;16.30;99.90;;;;;;5005322;28;20448;-66
2023/08/06 11:34:35;;;;;;;1.20;1.10;;;16.70;99.90;;;;;;5001745;28;20457;-66
2023/08/06 11:37:04;;;;;;;1.27;1.17;;;16.50;99.90;;;;;;5001594;28;20450;-66
2023/08/06 11:39:30;;;;;;;1.40;1.00;;;16.20;99.90;;;;;;5000654;28;20453;-66
2023/08/06 11:41:55;;;;;;;2.53;1.40;;;15.90;99.90;;;;;;5005957;28;20434;-66
2023/08/06 11:44:22;;;;;;;1.13;1.00;;;15.90;99.90;;;;;;5001487;28;20983;-66
2023/08/06 11:46:55;;;;;;;1.77;1.50;;;16.00;99.90;;;;;;5001694;28;20269;-66
2023/08/06 11:49:47;;;;;;;2.63;1.30;;;16.30;99.90;;;;;;5004165;28;21014;-66
2023/08/06 11:52:22;;;;;;;1.77;1.20;;;16.30;99.90;;;;;;5004720;28;20434;-66
2023/08/06 11:55:06;;;;;;;1.37;1.27;;;16.20;99.90;;;;;;5001368;28;20508;-66
2023/08/06 11:57:35;;;;;;;1.50;1.40;;;16.00;99.90;;;;;;4989584;28;20953;-66
2023/08/06 12:00:05;;;;;;;1.70;1.40;;;15.90;99.90;;;;;;5004969;28;20519;-66
2023/08/06 12:02:35;;;;;;;1.37;1.10;;;15.80;99.90;;;;;;4997469;28;20450;-66
2023/08/06 12:05:10;;;;;;;1.50;1.40;;;15.80;99.90;;;;;;4997669;28;20442;-66
2023/08/06 12:07:40;;;;;;;1.70;1.60;;;15.90;99.90;;;;;;4999843;28;20519;-66
2023/08/06 12:10:06;;;;;;;2.23;1.20;;;16.10;99.90;;;;;;5004571;28;20464;-66
2023/08/06 12:12:31;;;;;;;1.50;1.40;;;16.40;99.90;;;;;;5001280;28;20466;-67
2023/08/06 12:14:57;;;;;;;1.93;1.23;;;16.70;99.90;;;;;;5001687;28;20505;-66
2023/08/06 12:17:24;;;;;;;1.43;1.30;;;17.00;99.90;;;;;;5004561;28;20230;-66
2023/08/06 12:19:49;;;;;;;1.40;1.30;;;16.80;99.90;;;;;;5005221;28;20210;-66
2023/08/06 12:22:15;;;;;;;1.20;1.10;;;16.70;99.90;;;;;;5007269;28;20532;-66
2023/08/06 12:24:45;;;;;;;1.50;1.40;;;16.70;99.90;;;;;;5001289;28;20582;-66
2023/08/06 12:27:10;;;;;;;1.77;1.67;;;16.50;99.90;;;;;;5001517;28;20435;-66
2023/08/06 12:29:43;;;;;;;1.73;1.63;;;16.50;99.90;;;;;;5003475;28;20457;-66
2023/08/06 12:32:10;;;;;;;1.73;1.20;;;16.60;99.90;;;;;;5004069;28;20183;-66
2023/08/06 12:34:37;;;;;;;2.10;2.00;;;16.70;99.90;;;;;;5001912;28;20438;-67
2023/08/06 12:37:03;;;;;;;1.80;1.37;;;17.00;99.90;;;;;;4997540;28;20848;-66
2023/08/06 12:39:29;;;;;;;2.00;1.47;;;17.60;99.90;;;;;;5001017;28;20823;-66
2023/08/06 12:41:57;;;;;;;1.30;1.20;;;18.80;99.90;;;;;;5004864;28;20492;-67
2023/08/06 12:44:22;;;;;;;1.70;1.10;;;19.50;99.90;;;;;;5002330;28;20194;-67
2023/08/06 12:46:48;;;;;;;1.40;1.30;;;20.40;99.90;;;;;;4992463;28;20482;-66